createdAt,value
2022-12-05T00:02:45.769Z,9.52
2022-12-05T00:05:49.046Z,9.30
2022-12-05T00:08:52.290Z,9.45
2022-12-05T00:11:57.654Z,8.32
2022-12-05T00:15:00.681Z,8.32
2022-12-05T00:18:03.635Z,8.43
2022-12-05T00:21:06.605Z,8.63
2022-12-05T00:24:10.213Z,7.82
2022-12-05T00:27:14.116Z,8.07
2022-12-05T00:30:17.144Z,8.30
2022-12-05T00:33:19.709Z,7.90
2022-12-05T00:36:22.900Z,7.63
2022-12-05T00:39:25.381Z,9.13
2022-12-05T00:42:29.252Z,7.70
2022-12-05T00:45:31.908Z,7.75
2022-12-05T00:48:34.914Z,7.13
2022-12-05T00:51:38.949Z,8.55
2022-12-05T00:54:41.455Z,7.68
2022-12-05T00:57:45.850Z,7.00
2022-12-05T01:00:48.471Z,7.90
2022-12-05T01:03:53.243Z,7.38
2022-12-05T01:06:56.889Z,7.90
2022-12-05T01:09:59.899Z,7.03
2022-12-05T01:13:03.899Z,9.05
2022-12-05T01:16:07.106Z,7.78
2022-12-05T01:19:12.081Z,8.38
2022-12-05T01:22:14.580Z,8.63
2022-12-05T01:25:17.337Z,8.40
2022-12-05T01:28:21.565Z,8.52
2022-12-05T01:31:25.080Z,7.45
2022-12-05T01:34:27.582Z,6.97
2022-12-05T01:37:30.138Z,7.72
2022-12-05T01:40:33.161Z,6.03
2022-12-05T01:43:50.595Z,7.18
2022-12-05T01:46:55.543Z,7.07
2022-12-05T01:49:58.701Z,8.13
2022-12-05T01:53:01.806Z,6.97
2022-12-05T01:56:04.653Z,7.63
2022-12-05T01:59:08.382Z,7.68
2022-12-05T02:02:13.206Z,6.75
2022-12-05T02:05:18.094Z,7.57
2022-12-05T02:08:20.843Z,6.90
2022-12-05T02:11:24.459Z,7.53
2022-12-05T02:14:33.490Z,7.05
2022-12-05T02:17:41.100Z,7.80
2022-12-05T02:20:48.555Z,7.68
2022-12-05T02:24:07.985Z,7.72
2022-12-05T02:27:19.567Z,7.35
2022-12-05T02:30:24.478Z,6.85
2022-12-05T02:33:31.420Z,7.40
2022-12-05T02:36:38.421Z,7.82
2022-12-05T02:39:46.386Z,7.45
2022-12-05T02:42:52.756Z,7.40
2022-12-05T02:45:59.941Z,7.70
2022-12-05T02:49:08.388Z,8.27
2022-12-05T02:52:14.051Z,8.18
2022-12-05T02:55:17.874Z,7.45
2022-12-05T02:58:24.177Z,7.88
2022-12-05T03:01:31.720Z,7.55
2022-12-05T03:04:36.690Z,7.90
2022-12-05T03:07:39.974Z,7.80
2022-12-05T03:10:45.301Z,7.72
2022-12-05T03:13:50.792Z,8.40
2022-12-05T03:16:55.973Z,7.78
2022-12-05T03:20:01.584Z,8.57
2022-12-05T03:23:07.372Z,8.00
2022-12-05T03:26:17.074Z,8.25
2022-12-05T03:29:23.485Z,8.65
2022-12-05T03:32:31.295Z,8.10
2022-12-05T03:35:37.439Z,8.35
2022-12-05T03:38:45.370Z,7.95
2022-12-05T03:41:52.745Z,7.75
2022-12-05T03:44:56.377Z,7.85
2022-12-05T03:48:05.704Z,7.78
2022-12-05T03:51:09.167Z,7.75
2022-12-05T03:54:13.858Z,8.02
2022-12-05T03:57:17.929Z,7.78
2022-12-05T04:00:22.242Z,7.40
2022-12-05T04:03:38.946Z,7.65
2022-12-05T04:06:41.787Z,7.63
2022-12-05T04:09:46.328Z,7.13
2022-12-05T04:12:50.904Z,7.53
2022-12-05T04:16:14.410Z,8.00
2022-12-05T04:19:22.377Z,7.38
2022-12-05T04:22:24.838Z,7.70
2022-12-05T04:25:34.922Z,7.28
2022-12-05T04:28:40.883Z,8.10
2022-12-05T04:31:44.787Z,7.95
2022-12-05T04:34:51.651Z,7.82
2022-12-05T04:37:56.842Z,7.57
2022-12-05T04:41:00.879Z,8.45
2022-12-05T04:44:06.747Z,7.28
2022-12-05T04:47:10.419Z,8.25
2022-12-05T04:50:15.148Z,8.85
2022-12-05T04:53:18.385Z,10.55
2022-12-05T04:56:22.627Z,9.43
2022-12-05T04:59:25.267Z,11.38
2022-12-05T05:02:30.913Z,11.23
2022-12-05T05:05:33.389Z,10.48
2022-12-05T05:08:37.223Z,9.68
2022-12-05T05:11:39.719Z,10.45
2022-12-05T05:14:42.313Z,9.48
2022-12-05T05:17:44.871Z,12.32
2022-12-05T05:20:47.542Z,11.73
2022-12-05T05:23:51.731Z,11.82
2022-12-05T05:26:57.488Z,11.25
2022-12-05T05:30:00.482Z,11.15
2022-12-05T05:33:03.497Z,12.23
2022-12-05T05:36:06.502Z,11.52
2022-12-05T05:39:13.179Z,12.85
2022-12-05T05:42:15.873Z,12.32
2022-12-05T05:45:18.890Z,11.13
2022-12-05T05:48:21.547Z,12.07
2022-12-05T05:51:25.668Z,12.05
2022-12-05T05:54:29.768Z,10.88
2022-12-05T05:57:32.663Z,10.80
2022-12-05T06:00:35.579Z,10.70
2022-12-05T06:03:38.813Z,11.95
2022-12-05T06:06:41.621Z,11.43
2022-12-05T06:09:45.705Z,12.70
2022-12-05T06:12:48.249Z,13.35
2022-12-05T06:15:51.095Z,12.60
2022-12-05T06:18:54.141Z,12.18
2022-12-05T06:21:56.686Z,12.18
2022-12-05T06:25:00.709Z,8.70
2022-12-05T06:28:03.608Z,10.63
2022-12-05T06:31:08.425Z,11.10
2022-12-05T06:34:11.029Z,11.07
2022-12-05T06:37:13.503Z,10.50
2022-12-05T06:40:17.438Z,10.50
2022-12-05T06:43:20.009Z,9.63
2022-12-05T06:46:23.120Z,9.32
2022-12-05T06:49:31.702Z,8.70
2022-12-05T06:52:36.307Z,9.10
2022-12-05T06:55:40.163Z,8.80
2022-12-05T06:58:42.914Z,9.85
2022-12-05T07:01:46.906Z,9.88
2022-12-05T07:04:49.623Z,8.52
2022-12-05T07:07:52.300Z,10.32
2022-12-05T07:10:56.305Z,9.90
2022-12-05T07:13:59.083Z,9.35
2022-12-05T07:17:01.708Z,10.25
2022-12-05T07:20:04.930Z,10.50
2022-12-05T07:23:07.543Z,9.00
2022-12-05T07:26:12.340Z,9.70
2022-12-05T07:29:14.925Z,10.10
2022-12-05T07:32:17.591Z,8.10
2022-12-05T07:35:20.357Z,9.43
2022-12-05T07:38:22.852Z,9.98
2022-12-05T07:41:27.794Z,8.73
2022-12-05T07:44:30.727Z,9.50
2022-12-05T07:47:33.424Z,8.93
2022-12-05T07:50:36.126Z,7.35
2022-12-05T07:53:39.239Z,8.73
2022-12-05T07:56:47.537Z,9.00
2022-12-05T07:59:50.678Z,8.48
2022-12-05T08:02:53.910Z,7.90
2022-12-05T08:05:57.138Z,8.55
2022-12-05T08:09:00.184Z,9.48
2022-12-05T08:12:04.175Z,8.80
2022-12-05T08:15:07.567Z,8.02
2022-12-05T08:18:10.165Z,7.82
2022-12-05T08:21:14.020Z,8.45
2022-12-05T08:24:16.759Z,8.77
2022-12-05T08:27:20.765Z,8.05
2022-12-05T08:30:23.470Z,8.00
2022-12-05T08:33:26.099Z,7.97
2022-12-05T08:36:29.535Z,8.25
2022-12-05T08:39:37.998Z,8.38
2022-12-05T08:42:42.510Z,8.27
2022-12-05T08:45:50.189Z,7.75
2022-12-05T08:48:53.241Z,7.97
2022-12-05T08:51:56.175Z,8.20
2022-12-05T08:54:59.432Z,8.32
2022-12-05T08:58:03.643Z,7.45
2022-12-05T09:01:06.644Z,8.48
2022-12-05T09:04:09.865Z,8.27
2022-12-05T09:07:20.326Z,7.90
2022-12-05T09:10:22.906Z,9.77
2022-12-05T09:13:26.990Z,8.23
2022-12-05T09:16:36.546Z,8.02
2022-12-05T09:19:41.921Z,7.85
2022-12-05T09:22:44.882Z,9.75
2022-12-05T09:25:53.639Z,7.25
2022-12-05T09:28:58.033Z,8.10
2022-12-05T09:32:00.628Z,7.75
2022-12-05T09:35:03.222Z,7.20
2022-12-05T09:38:05.840Z,7.60
2022-12-05T09:41:14.280Z,7.25
2022-12-05T09:44:23.067Z,6.90
2022-12-05T09:47:30.563Z,6.93
2022-12-05T09:50:35.065Z,7.13
2022-12-05T09:53:39.096Z,7.35
2022-12-05T09:56:44.613Z,6.95
2022-12-05T09:59:48.579Z,6.82
2022-12-05T10:02:55.508Z,7.35
2022-12-05T10:06:05.824Z,7.15
2022-12-05T10:09:14.835Z,6.88
2022-12-05T10:12:21.831Z,6.35
2022-12-05T10:15:30.396Z,6.07
2022-12-05T10:18:34.346Z,7.57
2022-12-05T10:21:39.258Z,6.15
2022-12-05T10:24:44.035Z,6.97
2022-12-05T10:27:49.944Z,6.55
2022-12-05T10:30:56.938Z,6.90
2022-12-05T10:34:03.590Z,6.53
2022-12-05T10:37:10.827Z,7.30
2022-12-05T10:40:13.899Z,6.30
2022-12-05T10:43:19.674Z,6.80
2022-12-05T10:46:23.756Z,6.63
2022-12-05T10:49:26.884Z,6.93
2022-12-05T10:52:31.188Z,7.07
2022-12-05T10:55:37.135Z,6.70
2022-12-05T10:58:39.812Z,6.68
2022-12-05T11:01:46.910Z,5.57
2022-12-05T11:04:50.981Z,6.53
2022-12-05T11:07:54.440Z,7.85
2022-12-05T11:11:03.539Z,6.38
2022-12-05T11:14:07.193Z,6.70
2022-12-05T11:17:23.406Z,6.18
2022-12-05T11:20:37.342Z,5.38
2022-12-05T11:23:40.607Z,6.85
2022-12-05T11:26:45.446Z,6.80
2022-12-05T11:29:55.746Z,5.72
2022-12-05T11:33:13.379Z,6.55
2022-12-05T11:39:25.948Z,5.53
2022-12-05T11:42:37.587Z,5.53
2022-12-05T11:45:44.868Z,5.63
2022-12-05T11:48:59.546Z,6.25
2022-12-05T11:52:08.766Z,6.18
2022-12-05T11:55:16.077Z,5.68
2022-12-05T11:58:34.301Z,6.13
2022-12-05T12:01:41.994Z,6.25
2022-12-05T12:04:53.793Z,6.35
2022-12-05T12:08:03.580Z,6.32
2022-12-05T12:11:10.795Z,6.65
2022-12-05T12:14:16.589Z,5.82
2022-12-05T12:17:22.980Z,4.82
2022-12-05T12:20:35.259Z,6.05
2022-12-05T12:23:44.707Z,5.80
2022-12-05T12:26:55.868Z,6.03
2022-12-05T12:30:04.336Z,5.28
2022-12-05T12:33:12.112Z,5.70
2022-12-05T12:36:19.957Z,5.93
2022-12-05T12:39:29.350Z,5.57
2022-12-05T12:42:34.841Z,5.57
2022-12-05T12:45:49.947Z,6.10
2022-12-05T12:49:02.115Z,5.63
2022-12-05T12:52:12.830Z,5.90
2022-12-05T12:55:20.455Z,5.60
2022-12-05T12:58:31.192Z,5.95
2022-12-05T13:01:36.871Z,5.80
2022-12-05T13:04:44.848Z,6.80
2022-12-05T13:07:50.894Z,6.70
2022-12-05T13:10:54.806Z,6.50
2022-12-05T13:13:58.981Z,7.00
2022-12-05T13:17:03.332Z,6.28
2022-12-05T13:20:06.840Z,5.63
2022-12-05T13:23:14.039Z,6.22
2022-12-05T13:26:17.656Z,6.18
2022-12-05T13:29:22.352Z,6.18
2022-12-05T13:32:27.749Z,6.65
2022-12-05T13:35:49.804Z,6.60
2022-12-05T13:39:16.596Z,6.85
2022-12-05T13:42:24.330Z,6.57
2022-12-05T13:45:27.467Z,6.90
2022-12-05T13:48:31.587Z,7.32
2022-12-05T13:51:35.716Z,6.78
2022-12-05T13:54:44.279Z,5.63
2022-12-05T13:57:51.759Z,5.05
2022-12-05T14:01:15.179Z,5.95
2022-12-05T14:04:38.856Z,5.35
2022-12-05T14:07:47.995Z,5.07
2022-12-05T14:11:12.201Z,6.10
2022-12-05T14:14:47.262Z,6.28
2022-12-05T14:21:55.277Z,5.28
2022-12-05T14:25:00.795Z,5.05
2022-12-05T14:28:11.848Z,4.95
2022-12-05T14:31:21.315Z,4.53
2022-12-05T14:34:30.419Z,4.35
2022-12-05T14:37:34.398Z,3.80
2022-12-05T14:40:38.419Z,4.15
2022-12-05T14:43:42.612Z,4.13
2022-12-05T14:46:46.596Z,4.22
2022-12-05T14:50:02.395Z,3.90
2022-12-05T14:53:16.531Z,3.92
2022-12-05T14:56:21.208Z,3.85
2022-12-05T14:59:26.194Z,3.70
2022-12-05T15:02:33.441Z,4.72
2022-12-05T15:05:38.058Z,5.13
2022-12-05T15:08:44.824Z,4.47
2022-12-05T15:11:48.983Z,4.13
2022-12-05T15:14:56.277Z,3.88
2022-12-05T15:18:02.221Z,4.28
2022-12-05T15:21:08.881Z,3.92
2022-12-05T15:24:14.153Z,3.60
2022-12-05T15:27:17.162Z,3.78
2022-12-05T15:30:20.057Z,4.05
2022-12-05T15:33:24.107Z,3.22
2022-12-05T15:36:32.554Z,3.63
2022-12-05T15:39:50.106Z,3.78
2022-12-05T15:42:54.249Z,3.80
2022-12-05T15:46:10.551Z,3.88
2022-12-05T15:49:21.584Z,3.65
2022-12-05T15:52:31.998Z,4.07
2022-12-05T15:55:39.366Z,3.22
2022-12-05T15:58:45.451Z,3.83
2022-12-05T16:02:04.916Z,3.85
2022-12-05T16:05:20.281Z,4.30
2022-12-05T16:08:31.293Z,3.70
2022-12-05T16:11:34.753Z,4.45
2022-12-05T16:18:06.158Z,3.97
2022-12-05T16:21:27.057Z,3.08
2022-12-05T16:24:37.204Z,3.40
2022-12-05T16:27:57.395Z,3.60
2022-12-05T16:31:04.503Z,3.70
2022-12-05T16:34:09.505Z,3.33
2022-12-05T16:37:22.216Z,4.10
2022-12-05T16:40:28.800Z,3.58
2022-12-05T16:55:36.970Z,2.72
2022-12-05T17:05:45.384Z,2.70
2022-12-05T17:38:22.944Z,4.20
2022-12-05T17:41:26.323Z,3.40
2022-12-05T17:44:29.448Z,3.40
2022-12-05T17:47:33.142Z,3.70
2022-12-05T17:50:36.655Z,3.63
2022-12-05T17:53:40.688Z,3.25
2022-12-05T17:56:43.706Z,3.30
2022-12-05T17:59:46.244Z,3.55
2022-12-05T18:02:49.181Z,3.60
2022-12-05T18:05:51.964Z,3.78
2022-12-05T18:08:59.120Z,3.10
2022-12-05T18:12:02.966Z,3.55
2022-12-05T18:18:13.997Z,3.25
2022-12-05T18:21:16.893Z,3.33
2022-12-05T18:24:23.119Z,3.28
2022-12-05T18:27:25.963Z,3.08
2022-12-05T18:30:29.587Z,3.58
2022-12-05T18:33:33.571Z,3.58
2022-12-05T18:36:36.189Z,3.42
2022-12-05T18:39:46.898Z,14.20
2022-12-05T18:42:49.913Z,7.28
2022-12-05T18:46:07.364Z,4.68
2022-12-05T18:49:26.145Z,3.67
2022-12-05T18:52:28.831Z,4.78
2022-12-05T18:56:13.011Z,4.93
2022-12-05T18:59:07.940Z,4.78
2022-12-05T19:02:11.442Z,4.38
2022-12-05T19:05:15.827Z,4.68
2022-12-05T19:08:25.513Z,4.00
2022-12-05T19:11:29.094Z,3.53
2022-12-05T19:14:35.040Z,3.67
2022-12-05T19:17:38.143Z,3.63
2022-12-05T19:20:40.658Z,3.35
2022-12-05T19:23:44.015Z,3.28
2022-12-05T19:26:50.113Z,3.30
2022-12-05T19:29:57.708Z,3.72
2022-12-05T19:33:00.670Z,3.97
2022-12-05T19:36:04.174Z,4.30
2022-12-05T19:39:09.807Z,3.92
2022-12-05T19:42:12.412Z,4.00
2022-12-05T19:45:19.300Z,3.92
2022-12-05T19:48:21.895Z,4.13
2022-12-05T19:51:31.103Z,4.22
2022-12-05T19:54:33.704Z,4.10
2022-12-05T19:57:36.645Z,4.50
2022-12-05T20:00:41.142Z,3.67
2022-12-05T20:03:44.280Z,3.97
2022-12-05T20:06:48.395Z,3.65
2022-12-05T20:09:53.212Z,4.13
2022-12-05T20:12:57.812Z,3.08
2022-12-05T20:16:03.415Z,3.53
2022-12-05T20:19:08.025Z,3.15
2022-12-05T20:22:10.577Z,3.42
2022-12-05T20:25:13.337Z,3.67
2022-12-05T20:28:18.133Z,2.95
2022-12-05T20:31:28.086Z,3.72
2022-12-05T20:34:30.718Z,4.03
2022-12-05T20:37:37.290Z,4.10
2022-12-05T20:40:39.809Z,3.92
2022-12-05T20:43:45.505Z,3.53
2022-12-05T20:46:51.145Z,3.63
2022-12-05T20:49:54.884Z,4.20
2022-12-05T20:52:57.619Z,4.38
2022-12-05T20:56:02.811Z,4.25
2022-12-05T20:59:10.069Z,6.13
2022-12-05T21:02:14.323Z,5.38
2022-12-05T21:05:18.222Z,4.70
2022-12-05T21:08:21.229Z,5.22
2022-12-05T21:11:24.358Z,5.65
2022-12-05T21:14:35.222Z,5.07
2022-12-05T21:17:39.446Z,4.22
2022-12-05T21:20:42.599Z,4.13
2022-12-05T21:23:45.994Z,3.22
2022-12-05T21:26:49.920Z,3.47
2022-12-05T21:29:52.381Z,3.13
2022-12-05T21:32:57.267Z,2.95
2022-12-05T21:35:59.866Z,2.95
2022-12-05T21:39:02.375Z,2.30
2022-12-05T21:42:06.432Z,2.65
2022-12-05T21:45:09.524Z,2.40
2022-12-05T21:48:13.386Z,2.60
2022-12-05T21:51:16.233Z,2.63
2022-12-05T21:54:18.691Z,2.83
2022-12-05T21:57:23.462Z,3.30
2022-12-05T22:00:26.455Z,3.13
2022-12-05T22:03:30.299Z,3.05
2022-12-05T22:06:34.264Z,2.90
2022-12-05T22:09:36.859Z,3.85
2022-12-05T22:12:40.669Z,3.85
2022-12-05T22:15:43.198Z,3.17
2022-12-05T22:18:47.533Z,3.05
2022-12-05T22:21:50.364Z,2.67
2022-12-05T22:24:52.900Z,2.80
2022-12-05T22:27:56.278Z,3.35
2022-12-05T22:30:59.940Z,3.60
2022-12-05T22:34:03.967Z,2.88
2022-12-05T22:37:06.687Z,2.70
2022-12-05T22:40:10.541Z,3.25
2022-12-05T22:43:13.560Z,2.88
2022-12-05T22:46:18.638Z,3.75
2022-12-05T22:49:25.245Z,3.53
2022-12-05T22:52:28.294Z,2.97
2022-12-05T22:55:32.426Z,3.63
2022-12-05T22:58:35.729Z,3.35
2022-12-05T23:01:38.351Z,2.83
2022-12-05T23:04:42.421Z,3.30
2022-12-05T23:07:45.231Z,4.20
2022-12-05T23:10:48.148Z,4.00
2022-12-05T23:13:51.396Z,4.20
2022-12-05T23:16:54.115Z,4.55
2022-12-05T23:19:59.401Z,4.03
2022-12-05T23:23:02.854Z,4.43
2022-12-05T23:26:07.401Z,4.22
2022-12-05T23:29:11.939Z,4.22
2022-12-05T23:32:14.494Z,3.53
2022-12-05T23:35:19.126Z,4.22
2022-12-05T23:38:21.882Z,3.80
2022-12-05T23:41:25.889Z,3.78
2022-12-05T23:44:28.603Z,3.88
2022-12-05T23:47:31.472Z,3.70
2022-12-05T23:50:35.503Z,3.72
2022-12-05T23:53:39.245Z,4.07
2022-12-05T23:56:41.957Z,3.45
2022-12-05T23:59:44.825Z,3.95
